Terminal Aerodrome Forecast
Issued by NWS

Home | Current Version | Previous Version | Text Only | Print | Product List | Glossary On
Versions: 1 2 3 4 5 6 7 8 9 10 11 12 13 14 15
000
FTUS42 TJSJ 060531
TAFISX
TAF
TISX 060531Z 0606/0706 06007KT P6SM VCSH FEW026
     FM061330 10015G20KT P6SM SCT025
     FM062300 06014KT P6SM FEW025=

USA.gov is the U.S. government's official web portal to all federal, state and local government web resources and services.